createdAt,value
2017-07-06T00:00:44.739Z,0
2017-07-06T00:01:44.715Z,0
2017-07-06T00:02:44.701Z,0
2017-07-06T00:03:44.679Z,0
2017-07-06T00:04:44.661Z,0
2017-07-06T00:05:44.660Z,0
2017-07-06T00:06:44.620Z,0
2017-07-06T00:07:44.606Z,0
2017-07-06T00:08:43.962Z,0
2017-07-06T00:09:44.551Z,0
2017-07-06T00:10:44.246Z,0
2017-07-06T00:11:44.217Z,0
2017-07-06T00:12:43.890Z,0
2017-07-06T00:13:44.481Z,0
2017-07-06T00:14:44.475Z,0
2017-07-06T00:15:44.134Z,0
2017-07-06T00:16:44.423Z,0
2017-07-06T00:17:44.407Z,0
2017-07-06T00:18:44.077Z,0
2017-07-06T00:19:44.368Z,0
2017-07-06T00:20:44.344Z,0
2017-07-06T00:21:44.019Z,0
2017-07-06T00:22:44.305Z,0
2017-07-06T00:23:44.279Z,0
2017-07-06T00:24:44.005Z,0
2017-07-06T00:25:43.933Z,0
2017-07-06T00:26:44.238Z,0
2017-07-06T00:27:43.586Z,0
2017-07-06T00:28:44.181Z,0
2017-07-06T00:29:44.163Z,0
2017-07-06T00:30:44.206Z,0
2017-07-06T00:31:44.061Z,0
2017-07-06T00:32:43.800Z,0
2017-07-06T00:33:43.480Z,0
2017-07-06T00:34:44.072Z,0
2017-07-06T00:35:43.736Z,0
2017-07-06T00:36:43.409Z,0
2017-07-06T00:37:44.013Z,0
2017-07-06T00:38:43.986Z,0
2017-07-06T00:39:43.994Z,0
2017-07-06T00:40:43.953Z,0
2017-07-06T00:41:43.934Z,0
2017-07-06T00:42:43.909Z,0
2017-07-06T00:43:43.940Z,0
2017-07-06T00:44:43.873Z,0
2017-07-06T00:45:43.544Z,0
2017-07-06T00:46:44.085Z,0
2017-07-06T00:47:43.809Z,0
2017-07-06T00:48:43.476Z,0
2017-07-06T00:49:43.514Z,0
2017-07-06T00:50:43.125Z,0
2017-07-06T00:51:43.738Z,0
2017-07-06T00:52:43.707Z,0
2017-07-06T00:53:43.689Z,0
2017-07-06T00:54:43.357Z,0
2017-07-06T00:55:43.652Z,0
2017-07-06T00:56:43.677Z,0
2017-07-06T00:57:43.611Z,0
2017-07-06T00:58:43.598Z,0
2017-07-06T00:59:43.626Z,0
2017-07-06T01:00:43.605Z,0
2017-07-06T01:01:43.528Z,0
2017-07-06T01:02:43.574Z,0
2017-07-06T01:03:43.492Z,0
2017-07-06T01:04:43.475Z,0
2017-07-06T01:05:43.697Z,0
2017-07-06T01:06:43.429Z,0
2017-07-06T01:07:43.418Z,0
2017-07-06T01:08:43.403Z,0
2017-07-06T01:09:43.373Z,0
2017-07-06T01:10:43.349Z,0
2017-07-06T01:11:43.344Z,0
2017-07-06T01:12:43.322Z,0
2017-07-06T01:13:43.298Z,0
2017-07-06T01:14:42.656Z,0
2017-07-06T01:15:43.260Z,0
2017-07-06T01:16:42.624Z,0
2017-07-06T01:17:42.905Z,0
2017-07-06T01:18:43.194Z,0
2017-07-06T01:19:42.865Z,0
2017-07-06T01:20:43.156Z,0
2017-07-06T01:21:42.510Z,0
2017-07-06T01:22:43.112Z,0
2017-07-06T01:23:43.086Z,0
2017-07-06T01:24:43.070Z,0
2017-07-06T01:25:43.047Z,0
2017-07-06T01:26:43.043Z,0
2017-07-06T01:27:42.706Z,0
2017-07-06T01:28:42.998Z,0
2017-07-06T01:29:42.664Z,0
2017-07-06T01:30:42.643Z,0
2017-07-06T01:31:42.930Z,0
2017-07-06T01:32:42.916Z,0
2017-07-06T01:33:42.577Z,0
2017-07-06T01:34:42.873Z,0
2017-07-06T01:35:42.848Z,0
2017-07-06T01:36:42.875Z,0
2017-07-06T01:37:42.804Z,0
2017-07-06T01:38:42.789Z,0
2017-07-06T01:39:42.464Z,0
2017-07-06T01:40:42.749Z,0
2017-07-06T01:41:42.779Z,0
2017-07-06T01:42:42.717Z,0
2017-07-06T01:43:42.749Z,0
2017-07-06T01:44:42.668Z,0
2017-07-06T01:45:42.647Z,0
2017-07-06T01:46:42.623Z,0
2017-07-06T01:47:42.304Z,0
2017-07-06T01:48:42.283Z,0
2017-07-06T01:49:42.559Z,0
2017-07-06T01:50:42.549Z,0
2017-07-06T01:51:42.522Z,0
2017-07-06T01:52:42.511Z,0
2017-07-06T01:53:42.190Z,0
2017-07-06T01:54:42.159Z,0
2017-07-06T01:55:42.134Z,0
2017-07-06T01:56:42.422Z,0
2017-07-06T01:57:42.100Z,0
2017-07-06T01:58:42.079Z,0
2017-07-06T01:59:42.369Z,0
2017-07-06T02:00:42.340Z,0
2017-07-06T02:01:42.314Z,0
2017-07-06T02:02:41.942Z,0
2017-07-06T02:03:42.297Z,0
2017-07-06T02:04:41.959Z,0
2017-07-06T02:05:42.243Z,0
2017-07-06T02:06:42.221Z,0
2017-07-06T02:07:41.888Z,0
2017-07-06T02:08:41.879Z,0
2017-07-06T02:09:42.165Z,0
2017-07-06T02:10:42.139Z,0
2017-07-06T02:11:42.121Z,0
2017-07-06T02:12:42.130Z,0
2017-07-06T02:13:42.077Z,0
2017-07-06T02:14:42.059Z,0
2017-07-06T02:15:41.785Z,0
2017-07-06T02:16:42.019Z,0
2017-07-06T02:17:41.698Z,0
2017-07-06T02:18:41.980Z,0
2017-07-06T02:19:41.958Z,0
2017-07-06T02:20:41.945Z,0
2017-07-06T02:21:41.919Z,0
2017-07-06T02:22:41.895Z,0
2017-07-06T02:23:41.888Z,0
2017-07-06T02:24:41.859Z,0
2017-07-06T02:25:41.841Z,0
2017-07-06T02:26:41.824Z,0
2017-07-06T02:27:41.806Z,0
2017-07-06T02:28:41.466Z,0
2017-07-06T02:29:41.451Z,0
2017-07-06T02:30:41.732Z,0
2017-07-06T02:31:41.713Z,4
2017-07-06T02:32:41.080Z,4
2017-07-06T02:33:41.371Z,0
2017-07-06T02:34:41.662Z,0
2017-07-06T02:35:41.639Z,4
2017-07-06T02:36:41.612Z,4
2017-07-06T02:37:41.608Z,0
2017-07-06T02:38:41.590Z,4
2017-07-06T02:39:41.565Z,4
2017-07-06T02:40:41.581Z,4
2017-07-06T02:41:41.215Z,8
2017-07-06T02:42:41.500Z,4
2017-07-06T02:43:41.514Z,4
2017-07-06T02:44:41.144Z,8
2017-07-06T02:45:41.433Z,12
2017-07-06T02:46:41.467Z,12
2017-07-06T02:47:41.391Z,12
2017-07-06T02:48:41.378Z,12
2017-07-06T02:49:41.352Z,12
2017-07-06T02:50:41.021Z,16
2017-07-06T02:51:41.310Z,20
2017-07-06T02:52:41.293Z,20
2017-07-06T02:53:40.978Z,24
2017-07-06T02:54:41.262Z,28
2017-07-06T02:55:41.224Z,32
2017-07-06T02:56:40.595Z,32
2017-07-06T02:57:41.242Z,36
2017-07-06T02:58:40.866Z,40
2017-07-06T02:59:40.840Z,48
2017-07-06T03:00:40.812Z,52
2017-07-06T03:01:41.112Z,56
2017-07-06T03:02:40.476Z,60
2017-07-06T03:03:41.073Z,68
2017-07-06T03:04:41.097Z,76
2017-07-06T03:05:41.024Z,84
2017-07-06T03:06:41.014Z,88
2017-07-06T03:07:40.989Z,100
2017-07-06T03:08:41.267Z,108
2017-07-06T03:09:40.944Z,116
2017-07-06T03:10:40.613Z,124
2017-07-06T03:11:40.589Z,136
2017-07-06T03:12:40.899Z,144
2017-07-06T03:13:40.861Z,152
2017-07-06T03:14:40.540Z,168
2017-07-06T03:15:40.819Z,176
2017-07-06T03:16:40.793Z,188
2017-07-06T03:17:40.727Z,200
2017-07-06T03:18:40.754Z,212
2017-07-06T03:19:40.741Z,228
2017-07-06T03:20:40.409Z,236
2017-07-06T03:21:40.394Z,252
2017-07-06T03:22:40.362Z,260
2017-07-06T03:23:40.039Z,276
2017-07-06T03:24:40.644Z,292
2017-07-06T03:25:40.622Z,308
2017-07-06T03:26:40.603Z,320
2017-07-06T03:27:40.582Z,340
2017-07-06T03:28:40.554Z,360
2017-07-06T03:29:40.537Z,376
2017-07-06T03:30:40.515Z,396
2017-07-06T03:31:40.550Z,412
2017-07-06T03:32:40.472Z,436
2017-07-06T03:33:40.454Z,460
2017-07-06T03:34:40.690Z,480
2017-07-06T03:35:40.153Z,512
2017-07-06T03:36:40.394Z,548
2017-07-06T03:37:40.387Z,592
2017-07-06T03:38:40.351Z,620
2017-07-06T03:39:40.330Z,632
2017-07-06T03:40:40.311Z,656
2017-07-06T03:41:40.290Z,716
2017-07-06T03:42:40.316Z,780
2017-07-06T03:43:40.253Z,836
2017-07-06T03:44:39.922Z,860
2017-07-06T03:45:40.206Z,840
2017-07-06T03:46:40.190Z,820
2017-07-06T03:47:40.176Z,848
2017-07-06T03:48:39.837Z,884
2017-07-06T03:49:40.126Z,908
2017-07-06T03:50:39.486Z,936
2017-07-06T03:51:39.775Z,980
2017-07-06T03:52:40.074Z,1036
2017-07-06T03:53:40.053Z,1104
2017-07-06T03:54:39.455Z,1216
2017-07-06T03:55:39.698Z,1372
2017-07-06T03:56:39.685Z,1480
2017-07-06T03:57:39.969Z,1556
2017-07-06T03:58:40.201Z,1652
2017-07-06T03:59:40.171Z,1772
2017-07-06T04:00:39.302Z,1880
2017-07-06T04:01:39.893Z,2064
2017-07-06T04:02:39.873Z,2244
2017-07-06T04:03:39.534Z,2392
2017-07-06T04:04:39.889Z,2540
2017-07-06T04:05:39.798Z,2672
2017-07-06T04:06:39.472Z,2804
2017-07-06T04:07:39.768Z,2956
2017-07-06T04:08:39.506Z,3144
2017-07-06T04:09:39.727Z,3336
2017-07-06T04:10:39.704Z,3568
2017-07-06T04:11:39.681Z,3776
2017-07-06T04:12:39.662Z,3968
2017-07-06T04:13:39.642Z,4152
2017-07-06T04:14:39.621Z,4296
2017-07-06T04:15:39.667Z,4384
2017-07-06T04:16:39.274Z,4556
2017-07-06T04:17:39.580Z,4708
2017-07-06T04:18:39.548Z,4832
2017-07-06T04:19:39.521Z,4940
2017-07-06T04:20:39.506Z,5032
2017-07-06T04:21:39.493Z,5160
2017-07-06T04:22:39.453Z,5288
2017-07-06T04:23:38.832Z,5476
2017-07-06T04:24:39.117Z,5692
2017-07-06T04:25:39.098Z,5892
2017-07-06T04:26:39.082Z,6084
2017-07-06T04:27:39.365Z,6208
2017-07-06T04:28:39.348Z,6136
2017-07-06T04:29:39.327Z,5984
2017-07-06T04:30:39.311Z,5996
2017-07-06T04:31:39.334Z,6236
2017-07-06T04:32:38.955Z,6272
2017-07-06T04:33:38.940Z,6276
2017-07-06T04:34:38.619Z,6272
2017-07-06T04:35:39.212Z,6232
2017-07-06T04:36:39.195Z,6376
2017-07-06T04:37:39.169Z,6500
2017-07-06T04:38:38.842Z,6568
2017-07-06T04:39:38.514Z,6564
2017-07-06T04:40:39.120Z,6528
2017-07-06T04:41:39.098Z,6360
2017-07-06T04:42:39.078Z,6124
2017-07-06T04:43:39.074Z,6208
2017-07-06T04:44:39.039Z,6624
2017-07-06T04:45:39.029Z,7124
2017-07-06T04:46:38.696Z,7444
2017-07-06T04:47:38.677Z,7564
2017-07-06T04:48:38.952Z,7692
2017-07-06T04:49:38.936Z,7776
2017-07-06T04:50:38.933Z,7820
2017-07-06T04:51:38.902Z,7904
2017-07-06T04:52:38.596Z,8116
2017-07-06T04:53:38.878Z,8376
2017-07-06T04:54:38.854Z,8640
2017-07-06T04:55:38.882Z,8756
2017-07-06T04:56:38.820Z,9004
2017-07-06T04:57:38.805Z,9256
2017-07-06T04:58:38.780Z,9372
2017-07-06T04:59:38.458Z,9596
2017-07-06T05:00:38.751Z,9812
2017-07-06T05:01:38.718Z,9920
2017-07-06T05:02:38.394Z,10128
2017-07-06T05:03:38.745Z,10536
2017-07-06T05:04:38.714Z,10884
2017-07-06T05:05:38.358Z,11208
2017-07-06T05:06:38.624Z,11468
2017-07-06T05:07:38.621Z,11668
2017-07-06T05:08:38.591Z,11944
2017-07-06T05:09:37.964Z,12252
2017-07-06T05:10:38.262Z,12372
2017-07-06T05:11:38.545Z,12444
2017-07-06T05:12:38.524Z,12608
2017-07-06T05:13:38.513Z,12716
2017-07-06T05:14:38.481Z,12856
2017-07-06T05:15:38.153Z,12928
2017-07-06T05:16:38.456Z,13072
2017-07-06T05:17:38.118Z,13328
2017-07-06T05:18:38.053Z,13476
2017-07-06T05:19:38.396Z,13184
2017-07-06T05:20:38.077Z,13272
2017-07-06T05:21:38.355Z,13676
2017-07-06T05:22:38.347Z,13072
2017-07-06T05:23:38.321Z,12324
2017-07-06T05:24:38.310Z,12628
2017-07-06T05:25:38.309Z,12088
2017-07-06T05:26:38.270Z,12072
2017-07-06T05:27:52.912Z,15584
2017-07-06T05:28:38.249Z,15776
2017-07-06T05:29:37.919Z,15840
2017-07-06T05:30:38.205Z,16000
2017-07-06T05:31:38.185Z,16384
2017-07-06T05:32:37.860Z,16544
2017-07-06T05:33:37.859Z,16608
2017-07-06T05:34:38.157Z,16768
2017-07-06T05:35:37.823Z,16800
2017-07-06T05:36:38.114Z,16800
2017-07-06T05:37:38.140Z,16896
2017-07-06T05:38:38.080Z,17184
2017-07-06T05:39:38.060Z,17408
2017-07-06T05:40:37.745Z,17472
2017-07-06T05:41:38.036Z,17856
2017-07-06T05:42:38.025Z,18176
2017-07-06T05:43:37.995Z,18624
2017-07-06T05:44:37.988Z,19008
2017-07-06T05:45:38.028Z,19648
2017-07-06T05:46:37.962Z,19552
2017-07-06T05:47:37.938Z,18720
2017-07-06T05:48:37.923Z,17856
2017-07-06T05:49:37.593Z,17504
2017-07-06T05:50:37.932Z,17504
2017-07-06T05:51:37.613Z,18080
2017-07-06T05:52:37.854Z,18944
2017-07-06T05:53:37.843Z,19808
2017-07-06T05:54:37.831Z,20576
2017-07-06T05:55:37.504Z,20576
2017-07-06T05:56:37.805Z,20736
2017-07-06T05:57:37.473Z,21312
2017-07-06T05:58:38.033Z,21216
2017-07-06T05:59:37.766Z,20192
2017-07-06T06:00:37.794Z,20704
2017-07-06T06:01:37.731Z,21792
2017-07-06T06:02:37.710Z,21728
2017-07-06T06:03:37.700Z,22016
2017-07-06T06:04:37.065Z,22624
2017-07-06T06:05:37.725Z,23168
2017-07-06T06:06:37.663Z,22784
2017-07-06T06:07:37.684Z,22720
2017-07-06T06:08:37.322Z,22912
2017-07-06T06:09:37.607Z,23360
2017-07-06T06:10:37.594Z,23296
2017-07-06T06:11:37.581Z,23680
2017-07-06T06:12:37.253Z,24928
2017-07-06T06:13:37.603Z,25760
2017-07-06T06:14:37.531Z,25728
2017-07-06T06:15:37.224Z,25792
2017-07-06T06:16:37.197Z,26400
2017-07-06T06:17:37.496Z,26624
2017-07-06T06:18:37.475Z,25600
2017-07-06T06:19:37.477Z,24832
2017-07-06T06:20:37.452Z,24832
2017-07-06T06:21:37.437Z,25664
2017-07-06T06:22:37.427Z,26240
2017-07-06T06:23:37.404Z,26208
2017-07-06T06:24:37.401Z,26656
2017-07-06T06:25:37.391Z,27648
2017-07-06T06:26:37.371Z,28640
2017-07-06T06:27:37.043Z,29312
2017-07-06T06:28:37.040Z,29184
2017-07-06T06:29:37.395Z,28256
2017-07-06T06:30:37.316Z,26848
2017-07-06T06:31:37.309Z,26752
2017-07-06T06:32:37.303Z,27712
2017-07-06T06:33:37.282Z,29344
2017-07-06T06:34:36.645Z,31360
2017-07-06T06:35:37.256Z,32672
2017-07-06T06:36:36.987Z,34272
2017-07-06T06:37:36.923Z,34944
2017-07-06T06:38:36.918Z,33856
2017-07-06T06:39:37.201Z,33056
2017-07-06T06:40:36.889Z,32992
2017-07-06T06:41:37.200Z,33280
2017-07-06T06:42:37.227Z,33216
2017-07-06T06:43:37.160Z,32992
2017-07-06T06:44:37.153Z,33056
2017-07-06T06:45:37.138Z,33888
2017-07-06T06:46:36.816Z,33856
2017-07-06T06:47:36.808Z,32480
2017-07-06T06:48:36.800Z,31104
2017-07-06T06:49:37.170Z,30304
2017-07-06T06:50:37.078Z,31616
2017-07-06T06:51:37.072Z,33824
2017-07-06T06:52:37.064Z,35712
2017-07-06T06:53:37.053Z,37440
2017-07-06T06:54:37.030Z,38784
2017-07-06T06:55:37.104Z,39456
2017-07-06T06:56:37.036Z,39104
2017-07-06T06:57:37.021Z,38112
2017-07-06T06:58:36.992Z,36768
2017-07-06T06:59:36.986Z,35424
2017-07-06T07:00:36.969Z,34144
2017-07-06T07:01:36.970Z,34048
2017-07-06T07:02:36.635Z,34240
2017-07-06T07:03:36.637Z,34880
2017-07-06T07:04:36.922Z,36768
2017-07-06T07:05:36.919Z,34240
2017-07-06T07:06:37.663Z,32640
2017-07-06T07:07:36.898Z,32832
2017-07-06T07:08:36.891Z,34816
2017-07-06T07:09:36.886Z,38336
2017-07-06T07:10:36.928Z,42176
2017-07-06T07:11:36.895Z,43648
2017-07-06T07:12:36.588Z,42272
2017-07-06T07:13:36.856Z,39936
2017-07-06T07:14:36.838Z,37792
2017-07-06T07:15:36.829Z,36416
2017-07-06T07:16:36.508Z,37216
2017-07-06T07:17:36.807Z,39552
2017-07-06T07:18:36.792Z,42208
2017-07-06T07:19:36.844Z,43936
2017-07-06T07:20:36.842Z,44032
2017-07-06T07:21:36.456Z,41856
2017-07-06T07:22:37.010Z,39072
2017-07-06T07:23:36.742Z,36448
2017-07-06T07:24:36.736Z,35104
2017-07-06T07:25:36.735Z,35328
2017-07-06T07:26:36.724Z,36928
2017-07-06T07:27:36.710Z,39200
2017-07-06T07:28:36.784Z,40640
2017-07-06T07:29:36.390Z,41472
2017-07-06T07:30:36.384Z,41056
2017-07-06T07:31:36.679Z,39744
2017-07-06T07:32:36.424Z,28992
2017-07-06T07:33:36.657Z,44832
2017-07-06T07:34:36.706Z,47392
2017-07-06T07:35:36.387Z,48480
2017-07-06T07:36:36.635Z,51424
2017-07-06T07:37:36.623Z,50304
2017-07-06T07:38:36.334Z,47616
2017-07-06T07:39:36.656Z,43136
2017-07-06T07:40:36.289Z,43680
2017-07-06T07:41:36.591Z,45152
2017-07-06T07:42:36.574Z,45920
2017-07-06T07:43:36.575Z,48768
2017-07-06T07:44:36.254Z,49088
2017-07-06T07:45:36.250Z,48448
2017-07-06T07:46:36.594Z,47104
2017-07-06T07:47:36.539Z,44096
2017-07-06T07:48:36.221Z,42528
2017-07-06T07:49:36.222Z,41984
2017-07-06T07:50:36.563Z,40640
2017-07-06T07:51:36.505Z,42688
2017-07-06T07:52:35.882Z,46112
2017-07-06T07:53:36.502Z,49120
2017-07-06T07:54:36.180Z,50944
2017-07-06T07:55:36.471Z,51168
2017-07-06T07:56:36.154Z,52896
2017-07-06T07:57:36.467Z,53824
2017-07-06T07:58:36.461Z,47360
2017-07-06T07:59:36.447Z,54400
2017-07-06T08:00:36.136Z,48096
2017-07-06T08:01:36.127Z,50432
2017-07-06T08:02:36.158Z,48640
2017-07-06T08:03:36.419Z,53280
2017-07-06T08:04:36.088Z,55520
2017-07-06T08:05:36.450Z,56160
2017-07-06T08:06:36.399Z,59296
2017-07-06T08:07:36.077Z,61088
2017-07-06T08:08:36.063Z,63616
2017-07-06T08:09:36.057Z,63680
2017-07-06T08:10:36.360Z,63264
2017-07-06T08:11:36.411Z,60384
2017-07-06T08:12:36.400Z,58016
2017-07-06T08:13:36.329Z,55712
2017-07-06T08:14:36.335Z,54016
2017-07-06T08:15:36.017Z,53984
2017-07-06T08:16:36.319Z,54944
2017-07-06T08:17:36.000Z,58176
2017-07-06T08:18:36.348Z,54816
2017-07-06T08:19:36.044Z,61536
2017-07-06T08:20:36.294Z,62432
2017-07-06T08:21:35.969Z,62208
2017-07-06T08:22:36.267Z,59392
2017-07-06T08:23:35.952Z,58720
2017-07-06T08:24:36.255Z,58752
2017-07-06T08:25:36.250Z,58816
2017-07-06T08:26:36.299Z,59904
2017-07-06T08:27:36.254Z,62048
2017-07-06T08:28:36.232Z,63168
2017-07-06T08:29:35.922Z,64960
2017-07-06T08:30:36.215Z,66080
2017-07-06T08:31:36.208Z,64960
2017-07-06T08:32:35.895Z,63264
2017-07-06T08:33:36.298Z,60896
2017-07-06T08:34:36.196Z,60384
2017-07-06T08:35:36.193Z,60800
2017-07-06T08:36:36.231Z,60928
2017-07-06T08:37:35.869Z,61216
2017-07-06T08:38:36.168Z,62848
2017-07-06T08:39:35.605Z,63968
2017-07-06T08:40:36.172Z,65376
2017-07-06T08:41:36.161Z,69056
2017-07-06T08:42:36.139Z,76064
2017-07-06T08:43:36.155Z,76256
2017-07-06T08:44:35.826Z,76192
2017-07-06T08:45:36.243Z,76096
2017-07-06T08:46:36.132Z,73888
2017-07-06T08:47:35.811Z,73120
2017-07-06T08:48:35.810Z,72608
2017-07-06T08:49:36.109Z,71584
2017-07-06T08:50:35.800Z,71552
2017-07-06T08:51:35.787Z,68288
2017-07-06T08:52:35.785Z,65024
2017-07-06T08:53:36.087Z,64576
2017-07-06T08:54:36.133Z,63936
2017-07-06T08:55:36.106Z,61824
2017-07-06T08:56:35.767Z,58912
2017-07-06T08:57:35.759Z,57728
2017-07-06T08:58:36.063Z,57728
2017-07-06T08:59:36.065Z,57952
2017-07-06T09:00:35.501Z,57760
2017-07-06T09:01:36.047Z,56800
2017-07-06T09:02:36.043Z,58048
2017-07-06T09:03:35.750Z,58976
2017-07-06T09:04:36.019Z,59392
2017-07-06T09:05:35.786Z,60128
2017-07-06T09:06:35.710Z,59872
2017-07-06T09:07:36.027Z,59392
2017-07-06T09:08:35.704Z,61248
2017-07-06T09:09:35.395Z,63040
2017-07-06T09:10:36.149Z,64672
2017-07-06T09:11:35.994Z,66528
2017-07-06T09:12:36.060Z,66368
2017-07-06T09:13:35.676Z,66880
2017-07-06T09:14:35.685Z,65440
2017-07-06T09:15:35.684Z,64608
2017-07-06T09:16:35.671Z,65600
2017-07-06T09:17:36.271Z,68992
2017-07-06T09:18:35.963Z,71744
2017-07-06T09:19:35.972Z,68928
2017-07-06T09:20:35.953Z,66752
2017-07-06T09:21:35.651Z,65824
2017-07-06T09:22:35.934Z,67680
2017-07-06T09:23:35.622Z,67776
2017-07-06T09:24:35.616Z,68352
2017-07-06T09:25:35.635Z,70112
2017-07-06T09:26:35.923Z,68384
2017-07-06T09:27:35.627Z,67200
2017-07-06T09:28:35.924Z,67072
2017-07-06T09:29:35.592Z,61088
2017-07-06T09:30:35.591Z,67136
2017-07-06T09:31:35.896Z,68544
2017-07-06T09:32:35.887Z,71328
2017-07-06T09:33:35.897Z,73856
2017-07-06T09:34:35.932Z,73248
2017-07-06T09:35:35.871Z,73184
2017-07-06T09:36:35.871Z,76160
2017-07-06T09:37:35.550Z,79072
2017-07-06T09:38:35.847Z,79488
2017-07-06T09:39:35.848Z,74048
2017-07-06T09:40:35.534Z,46400
2017-07-06T09:41:35.844Z,44032
2017-07-06T09:42:35.535Z,66848
2017-07-06T09:43:35.517Z,66080
2017-07-06T09:44:35.825Z,63168
2017-07-06T09:45:35.827Z,61184
2017-07-06T09:46:35.863Z,64320
2017-07-06T09:47:35.813Z,69824
2017-07-06T09:48:35.813Z,70016
2017-07-06T09:49:35.806Z,71360
2017-07-06T09:50:35.834Z,64768
2017-07-06T09:51:35.475Z,48320
2017-07-06T09:52:35.514Z,64064
2017-07-06T09:53:35.787Z,65696
2017-07-06T09:54:35.461Z,67808
2017-07-06T09:55:35.850Z,71456
2017-07-06T09:56:35.444Z,75584
2017-07-06T09:57:35.746Z,81536
2017-07-06T09:58:35.433Z,78240
2017-07-06T09:59:35.742Z,19232
2017-07-06T10:00:35.459Z,37696
2017-07-06T10:01:35.737Z,74048
2017-07-06T10:02:35.413Z,74784
2017-07-06T10:03:35.406Z,70656
2017-07-06T10:04:35.395Z,72256
2017-07-06T10:05:35.400Z,70976
2017-07-06T10:06:35.699Z,70400
2017-07-06T10:07:35.690Z,74624
2017-07-06T10:08:35.732Z,72800
2017-07-06T10:09:35.680Z,78688
2017-07-06T10:10:35.408Z,79648
2017-07-06T10:11:35.758Z,80256
2017-07-06T10:12:35.597Z,79424
2017-07-06T10:13:35.662Z,81600
2017-07-06T10:14:35.333Z,82176
2017-07-06T10:15:35.688Z,84352
2017-07-06T10:16:35.328Z,84608
2017-07-06T10:17:35.325Z,87200
2017-07-06T10:18:35.310Z,84128
2017-07-06T10:19:35.618Z,83008
2017-07-06T10:20:35.303Z,82432
2017-07-06T10:21:35.598Z,80960
2017-07-06T10:22:35.386Z,82304
2017-07-06T10:23:35.585Z,84448
2017-07-06T10:24:35.585Z,86624
2017-07-06T10:25:35.573Z,87616
2017-07-06T10:26:35.254Z,91168
2017-07-06T10:27:35.258Z,89760
2017-07-06T10:28:35.620Z,84704
2017-07-06T10:29:35.242Z,80224
2017-07-06T10:30:35.546Z,81152
2017-07-06T10:31:35.546Z,83520
2017-07-06T10:32:35.226Z,89440
2017-07-06T10:33:35.530Z,94592
2017-07-06T10:34:35.524Z,98944
2017-07-06T10:35:35.514Z,102304
2017-07-06T10:36:35.513Z,101376
2017-07-06T10:37:35.560Z,102176
2017-07-06T10:38:35.295Z,103904
2017-07-06T10:39:35.505Z,106048
2017-07-06T10:40:35.178Z,109760
2017-07-06T10:41:35.589Z,112288
2017-07-06T10:42:35.175Z,110272
2017-07-06T10:43:35.168Z,109920
2017-07-06T10:44:35.167Z,96384
2017-07-06T10:45:35.161Z,44832
2017-07-06T10:46:35.464Z,88640
2017-07-06T10:47:35.459Z,87616
2017-07-06T10:48:35.450Z,87488
2017-07-06T10:49:35.503Z,83840
2017-07-06T10:50:35.436Z,83040
2017-07-06T10:51:35.433Z,70944
2017-07-06T10:52:35.426Z,35712
2017-07-06T10:53:35.430Z,20832
2017-07-06T10:54:35.489Z,85792
2017-07-06T10:55:35.101Z,89472
2017-07-06T10:56:35.411Z,88480
2017-07-06T10:57:35.353Z,87808
2017-07-06T10:58:35.078Z,94464
2017-07-06T10:59:35.385Z,95328
2017-07-06T11:00:35.097Z,96192
2017-07-06T11:01:35.476Z,98656
2017-07-06T11:02:35.369Z,99712
2017-07-06T11:03:35.412Z,97568
2017-07-06T11:04:35.358Z,90304
2017-07-06T11:05:35.355Z,39936
2017-07-06T11:06:35.371Z,98656
2017-07-06T11:07:35.562Z,102400
2017-07-06T11:08:35.027Z,74400
2017-07-06T11:09:35.331Z,30592
2017-07-06T11:10:35.020Z,9364
2017-07-06T11:11:35.018Z,9388
2017-07-06T11:12:35.330Z,9856
2017-07-06T11:13:35.308Z,25120
2017-07-06T11:14:35.006Z,48896
2017-07-06T11:15:35.009Z,72640
2017-07-06T11:16:35.340Z,84768
2017-07-06T11:17:34.975Z,86304
2017-07-06T11:18:35.288Z,90176
2017-07-06T11:19:34.658Z,92832
2017-07-06T11:20:34.965Z,63200
2017-07-06T11:21:35.311Z,18560
2017-07-06T11:22:34.936Z,7776
2017-07-06T11:23:35.237Z,7728
2017-07-06T11:24:34.927Z,7720
2017-07-06T11:25:34.903Z,7820
2017-07-06T11:26:35.208Z,7684
2017-07-06T11:27:34.900Z,7604
2017-07-06T11:28:35.246Z,7528
2017-07-06T11:29:34.929Z,7276
2017-07-06T11:30:34.877Z,7084
2017-07-06T11:31:35.169Z,6940
2017-07-06T11:32:35.151Z,6844
2017-07-06T11:33:35.141Z,6748
2017-07-06T11:34:34.833Z,6668
2017-07-06T11:35:35.170Z,6584
2017-07-06T11:36:35.111Z,6540
2017-07-06T11:37:35.096Z,6528
2017-07-06T11:38:35.094Z,6540
2017-07-06T11:39:35.081Z,6536
2017-07-06T11:40:34.786Z,6564
2017-07-06T11:41:35.054Z,6612
2017-07-06T11:42:35.038Z,6672
2017-07-06T11:43:35.027Z,6668
2017-07-06T11:44:35.014Z,6684
2017-07-06T11:45:35.002Z,6740
2017-07-06T11:46:34.982Z,6744
2017-07-06T11:47:35.272Z,6780
2017-07-06T11:48:34.949Z,6780
2017-07-06T11:49:34.945Z,6752
2017-07-06T11:50:34.667Z,6708
2017-07-06T11:51:34.973Z,6664
2017-07-06T11:52:34.908Z,6632
2017-07-06T11:53:34.623Z,6556
2017-07-06T11:54:34.887Z,6468
2017-07-06T11:55:34.859Z,6368
2017-07-06T11:56:34.846Z,6304
2017-07-06T11:57:34.836Z,6292
2017-07-06T11:58:34.823Z,6356
2017-07-06T11:59:34.863Z,6420
2017-07-06T12:00:34.577Z,6456
2017-07-06T12:01:34.778Z,6484
2017-07-06T12:02:34.750Z,6496
2017-07-06T12:03:34.749Z,6480
2017-07-06T12:04:34.741Z,6436
2017-07-06T12:05:34.424Z,6412
2017-07-06T12:06:34.701Z,6404
2017-07-06T12:07:34.810Z,6400
2017-07-06T12:08:34.674Z,6420
2017-07-06T12:09:34.335Z,6452
2017-07-06T12:10:34.385Z,6472
2017-07-06T12:11:34.311Z,6480
2017-07-06T12:12:34.701Z,6444
2017-07-06T12:13:34.599Z,6396
2017-07-06T12:14:34.569Z,6336
2017-07-06T12:15:34.555Z,6312
2017-07-06T12:16:34.237Z,6304
2017-07-06T12:17:34.326Z,6268
2017-07-06T12:18:34.565Z,6236
2017-07-06T12:19:34.517Z,6192
2017-07-06T12:20:34.486Z,6168
2017-07-06T12:21:34.513Z,6132
2017-07-06T12:22:34.454Z,6136
2017-07-06T12:23:34.483Z,6112
2017-07-06T12:24:34.442Z,6112
2017-07-06T12:25:34.127Z,6104
2017-07-06T12:26:34.089Z,6056
2017-07-06T12:27:34.081Z,6012
2017-07-06T12:28:34.066Z,5944
2017-07-06T12:29:34.345Z,5876
2017-07-06T12:30:34.353Z,5812
2017-07-06T12:31:34.317Z,5776
2017-07-06T12:32:34.304Z,5772
2017-07-06T12:33:33.988Z,5744
2017-07-06T12:34:34.275Z,5704
2017-07-06T12:35:34.266Z,5668
2017-07-06T12:36:34.243Z,5644
2017-07-06T12:37:34.233Z,5616
2017-07-06T12:38:34.209Z,5584
2017-07-06T12:39:34.193Z,5548
2017-07-06T12:40:34.192Z,5512
2017-07-06T12:41:34.170Z,5492
2017-07-06T12:42:34.152Z,5492
2017-07-06T12:43:33.528Z,5508
2017-07-06T12:44:34.120Z,5552
2017-07-06T12:45:33.796Z,5596
2017-07-06T12:46:34.093Z,5632
2017-07-06T12:47:34.081Z,5684
2017-07-06T12:48:33.796Z,5724
2017-07-06T12:49:34.049Z,5764
2017-07-06T12:50:34.033Z,5784
2017-07-06T12:51:34.017Z,5764
2017-07-06T12:52:34.001Z,5680
2017-07-06T12:53:33.972Z,5536
2017-07-06T12:54:33.973Z,5424
2017-07-06T12:55:34.006Z,5388
2017-07-06T12:56:33.373Z,5400
2017-07-06T12:57:34.031Z,5420
2017-07-06T12:58:33.608Z,5420
2017-07-06T12:59:33.885Z,5380
2017-07-06T13:00:33.570Z,5292
2017-07-06T13:01:33.854Z,5180
2017-07-06T13:02:33.846Z,5116
2017-07-06T13:03:33.831Z,5104
2017-07-06T13:04:33.821Z,5128
2017-07-06T13:05:33.503Z,5148
2017-07-06T13:06:33.785Z,5120
2017-07-06T13:07:33.460Z,5112
2017-07-06T13:08:33.444Z,5128
2017-07-06T13:09:33.437Z,5168
2017-07-06T13:10:33.719Z,5168
2017-07-06T13:11:33.701Z,5204
2017-07-06T13:12:33.390Z,5204
2017-07-06T13:13:33.689Z,5172
2017-07-06T13:14:33.705Z,5252
2017-07-06T13:15:33.650Z,5508
2017-07-06T13:16:33.670Z,5716
2017-07-06T13:17:33.676Z,6064
2017-07-06T13:18:33.592Z,6124
2017-07-06T13:19:33.577Z,6216
2017-07-06T13:20:33.562Z,6284
2017-07-06T13:21:33.551Z,6152
2017-07-06T13:22:33.823Z,6184
2017-07-06T13:23:33.291Z,6068
2017-07-06T13:24:33.499Z,5896
2017-07-06T13:25:33.480Z,5748